Time;durP1;ratioP1;P1;durP2;ratioP2;P2;SDS_P1;SDS_P2;PMS_P1;PMS_P2;Temp;Humidity;BMP_temperature;BMP_pressure;BME280_temperature;BME280_humidity;BME280_pressure;Samples;Min_cycle;Max_cycle;Signal;HPM_P1;HPM_P2
2022/05/18 00:01:01;;;;;;;2.40;2.20;;;;;;;;;;5029908;28;20214;-81
2022/05/18 00:03:30;;;;;;;3.10;2.60;;;;;;;;;;5029345;28;20273;-81
2022/05/18 00:06:00;;;;;;;2.50;2.30;;;;;;;;;;5028974;28;20241;-81
2022/05/18 00:08:27;;;;;;;2.50;2.25;;;;;;;;;;5029856;28;20231;-82
2022/05/18 00:10:55;;;;;;;2.38;2.25;;;;;;;;;;5029048;28;20198;-81
2022/05/18 00:13:22;;;;;;;2.78;2.13;;;;;;;;;;5028924;28;20206;-81
2022/05/18 00:15:51;;;;;;;2.42;2.20;;;;;;;;;;5029152;28;20229;-82
2022/05/18 00:18:18;;;;;;;2.28;2.10;;;;;;;;;;5029633;28;20237;-80
2022/05/18 00:20:45;;;;;;;2.50;2.30;;;;;;;;;;5023658;28;20207;-81
2022/05/18 00:23:13;;;;;;;3.38;2.30;;;;;;;;;;5027038;28;20203;-81
2022/05/18 00:25:42;;;;;;;2.35;2.15;;;;;;;;;;5027694;28;20218;-82
2022/05/18 00:28:09;;;;;;;2.80;2.60;;;;;;;;;;5029547;28;20278;-81
2022/05/18 00:30:38;;;;;;;2.38;2.10;;;;;;;;;;5028680;28;20226;-81
2022/05/18 00:33:08;;;;;;;2.10;2.00;;;;;;;;;;5028779;28;20205;-81
2022/05/18 00:35:36;;;;;;;2.40;2.20;;;;;;;;;;5027477;28;20215;-81
2022/05/18 00:38:04;;;;;;;2.15;2.05;;;;;;;;;;5028196;28;20265;-81
2022/05/18 00:40:32;;;;;;;2.40;2.20;;;;;;;;;;5028609;28;20207;-82
2022/05/18 00:42:59;;;;;;;2.47;2.28;;;;;;;;;;5030004;28;20203;-82
2022/05/18 00:45:27;;;;;;;2.88;2.35;;;;;;;;;;5028773;28;20233;-81
2022/05/18 00:47:54;;;;;;;2.30;2.10;;;;;;;;;;5028344;28;20230;-81
2022/05/18 00:50:28;;;;;;;2.58;2.25;;;;;;;;;;5029021;28;20225;-81
2022/05/18 00:53:00;;;;;;;3.22;2.03;;;;;;;;;;5029161;28;20208;-81
2022/05/18 00:55:30;;;;;;;2.40;2.20;;;;;;;;;;5028998;28;20216;-81
2022/05/18 00:58:03;;;;;;;2.47;2.28;;;;;;;;;;5028997;28;20230;-81
2022/05/18 01:00:33;;;;;;;2.30;2.10;;;;;;;;;;5029258;28;20290;-81
2022/05/18 01:03:03;;;;;;;2.33;2.13;;;;;;;;;;5028650;28;20206;-82
2022/05/18 01:05:35;;;;;;;2.22;2.03;;;;;;;;;;5027013;28;20222;-81
2022/05/18 01:08:03;;;;;;;2.65;2.05;;;;;;;;;;5028851;28;20230;-81
2022/05/18 01:10:30;;;;;;;2.17;2.00;;;;;;;;;;5028998;28;20236;-81
2022/05/18 01:12:59;;;;;;;2.45;2.25;;;;;;;;;;5028358;28;20206;-80
2022/05/18 01:15:26;;;;;;;2.38;2.17;;;;;;;;;;5027623;28;20203;-82
2022/05/18 01:17:57;;;;;;;2.33;2.13;;;;;;;;;;5028014;28;20226;-81
2022/05/18 01:20:26;;;;;;;2.35;2.15;;;;;;;;;;5029273;28;20210;-81
2022/05/18 01:23:00;;;;;;;2.45;2.25;;;;;;;;;;5028588;28;20202;-82
2022/05/18 01:25:36;;;;;;;2.50;2.30;;;;;;;;;;5028366;28;20230;-82
2022/05/18 01:28:06;;;;;;;2.72;2.53;;;;;;;;;;5028455;28;20226;-81
2022/05/18 01:30:34;;;;;;;2.10;1.90;;;;;;;;;;5029389;28;20210;-83
2022/05/18 01:33:04;;;;;;;1.95;1.85;;;;;;;;;;5028801;28;20213;-81
2022/05/18 01:35:33;;;;;;;2.03;1.90;;;;;;;;;;5027788;28;20233;-81
2022/05/18 01:38:00;;;;;;;2.47;2.28;;;;;;;;;;5029538;28;20246;-81
2022/05/18 01:40:30;;;;;;;2.70;1.98;;;;;;;;;;5028549;28;20223;-82
2022/05/18 01:43:00;;;;;;;2.03;1.92;;;;;;;;;;5029172;28;20207;-82
2022/05/18 01:45:29;;;;;;;2.40;2.20;;;;;;;;;;5027420;28;20296;-82
2022/05/18 01:47:56;;;;;;;2.55;2.35;;;;;;;;;;5028314;28;20226;-81
2022/05/18 01:50:26;;;;;;;2.38;2.20;;;;;;;;;;5027871;28;20209;-82
2022/05/18 01:52:54;;;;;;;2.22;2.03;;;;;;;;;;5031938;28;20194;-83
2022/05/18 01:55:22;;;;;;;2.30;2.08;;;;;;;;;;5034181;28;20202;-81
2022/05/18 01:57:50;;;;;;;2.70;2.50;;;;;;;;;;5030621;28;20649;-82
2022/05/18 02:00:17;;;;;;;2.40;2.10;;;;;;;;;;5030872;28;20202;-81
2022/05/18 02:02:46;;;;;;;2.25;2.08;;;;;;;;;;5033229;28;20221;-80
2022/05/18 02:05:13;;;;;;;2.35;2.15;;;;;;;;;;5029597;28;20206;-79
2022/05/18 02:07:40;;;;;;;2.22;2.03;;;;;;;;;;5032583;28;20235;-81
2022/05/18 02:10:08;;;;;;;2.10;1.90;;;;;;;;;;5032340;28;20207;-81
2022/05/18 02:12:36;;;;;;;2.55;2.35;;;;;;;;;;5033710;28;20274;-81
2022/05/18 02:15:04;;;;;;;2.67;2.30;;;;;;;;;;5032406;28;20203;-80
2022/05/18 02:17:32;;;;;;;3.22;2.53;;;;;;;;;;5031047;28;20218;-81
2022/05/18 02:20:00;;;;;;;2.30;2.10;;;;;;;;;;5031721;28;20198;-80
2022/05/18 02:22:28;;;;;;;2.78;2.30;;;;;;;;;;5030919;28;20211;-81
2022/05/18 02:24:55;;;;;;;2.40;2.20;;;;;;;;;;5030165;28;20233;-81
2022/05/18 02:27:23;;;;;;;2.53;2.33;;;;;;;;;;5031345;28;20226;-83
2022/05/18 02:29:50;;;;;;;2.40;2.30;;;;;;;;;;5031584;28;20210;-81
2022/05/18 02:32:18;;;;;;;2.58;2.17;;;;;;;;;;5031304;28;20210;-81
2022/05/18 02:34:45;;;;;;;2.67;2.47;;;;;;;;;;5026710;28;20218;-81
2022/05/18 02:37:14;;;;;;;2.72;2.47;;;;;;;;;;5030803;28;20234;-81
2022/05/18 02:39:42;;;;;;;2.30;2.20;;;;;;;;;;5031459;28;20277;-81
2022/05/18 02:42:09;;;;;;;2.38;2.20;;;;;;;;;;5030298;28;20272;-83
2022/05/18 02:44:36;;;;;;;2.50;2.30;;;;;;;;;;5029898;28;20222;-81
2022/05/18 02:47:04;;;;;;;2.60;2.40;;;;;;;;;;5030237;28;20231;-81
2022/05/18 02:49:31;;;;;;;3.05;2.40;;;;;;;;;;5030762;28;20229;-82
2022/05/18 02:51:59;;;;;;;2.55;2.35;;;;;;;;;;5030027;28;20202;-81
2022/05/18 02:57:12;;;;;;;2.83;2.50;;;;;;;;;;5038769;28;20283;-81
2022/05/18 02:59:43;;;;;;;2.47;2.28;;;;;;;;;;5034449;28;20199;-81
2022/05/18 03:02:10;;;;;;;2.60;2.40;;;;;;;;;;5024664;28;20222;-82
2022/05/18 03:04:37;;;;;;;2.65;2.45;;;;;;;;;;5029177;28;20241;-81
2022/05/18 03:07:05;;;;;;;2.42;2.03;;;;;;;;;;5054865;23;20225;-76
2022/05/18 03:09:34;;;;;;;2.72;2.10;;;;;;;;;;5045597;28;20226;-76
2022/05/18 03:12:02;;;;;;;2.53;2.33;;;;;;;;;;5035785;28;20674;-76
2022/05/18 03:14:29;;;;;;;2.60;2.40;;;;;;;;;;5042529;28;20221;-75
2022/05/18 03:16:57;;;;;;;2.58;2.35;;;;;;;;;;5032740;28;20619;-75
2022/05/18 03:19:24;;;;;;;2.30;2.10;;;;;;;;;;5028456;28;20202;-76
2022/05/18 03:24:38;;;;;;;2.50;2.30;;;;;;;;;;5032058;28;20220;-76
2022/05/18 03:27:06;;;;;;;2.63;2.33;;;;;;;;;;5032657;28;20228;-76
2022/05/18 03:29:34;;;;;;;2.63;2.17;;;;;;;;;;5032672;28;20210;-76
2022/05/18 03:32:01;;;;;;;2.83;2.40;;;;;;;;;;5032509;28;20194;-76
2022/05/18 03:34:28;;;;;;;2.40;2.00;;;;;;;;;;5032449;28;20205;-76
2022/05/18 03:36:55;;;;;;;2.38;2.17;;;;;;;;;;5032617;28;20225;-76
2022/05/18 03:39:23;;;;;;;2.42;2.22;;;;;;;;;;5032630;28;20209;-76
2022/05/18 03:41:52;;;;;;;2.70;2.50;;;;;;;;;;5032301;28;20206;-76
2022/05/18 03:44:20;;;;;;;2.38;2.17;;;;;;;;;;5031995;28;20209;-76
2022/05/18 03:46:47;;;;;;;2.58;2.20;;;;;;;;;;5032643;28;20206;-76
2022/05/18 03:49:14;;;;;;;2.45;2.25;;;;;;;;;;5032663;28;20232;-76
2022/05/18 03:51:42;;;;;;;2.33;2.15;;;;;;;;;;5032440;28;20255;-76
2022/05/18 03:54:10;;;;;;;2.50;2.30;;;;;;;;;;5031577;28;20234;-76
2022/05/18 03:56:37;;;;;;;2.35;2.15;;;;;;;;;;5032213;28;20722;-76
2022/05/18 03:59:07;;;;;;;2.50;2.30;;;;;;;;;;5031624;28;20209;-76
2022/05/18 04:01:34;;;;;;;2.95;2.20;;;;;;;;;;5032255;28;20213;-76
2022/05/18 04:04:01;;;;;;;2.53;2.33;;;;;;;;;;5031741;28;20209;-76
2022/05/18 04:06:29;;;;;;;2.15;1.98;;;;;;;;;;5031484;28;20271;-76
2022/05/18 04:08:56;;;;;;;2.60;2.40;;;;;;;;;;5032432;28;20213;-76
2022/05/18 04:11:23;;;;;;;3.22;2.47;;;;;;;;;;5031582;28;20244;-76
2022/05/18 04:13:51;;;;;;;2.70;2.38;;;;;;;;;;5031186;28;20761;-76
2022/05/18 04:16:20;;;;;;;2.60;2.40;;;;;;;;;;5031540;28;20285;-76
2022/05/18 04:18:47;;;;;;;2.47;2.28;;;;;;;;;;5031980;28;20234;-76
2022/05/18 04:21:14;;;;;;;2.45;2.20;;;;;;;;;;5031610;28;20229;-76
2022/05/18 04:23:42;;;;;;;2.20;2.10;;;;;;;;;;5031141;28;20206;-76
2022/05/18 04:26:09;;;;;;;2.28;2.08;;;;;;;;;;5031323;28;20225;-76
2022/05/18 04:28:37;;;;;;;2.42;2.25;;;;;;;;;;5031542;28;20271;-76
2022/05/18 04:31:04;;;;;;;2.58;2.38;;;;;;;;;;5029671;28;20221;-76
2022/05/18 04:33:33;;;;;;;2.90;2.70;;;;;;;;;;5027748;28;20197;-76
2022/05/18 04:36:02;;;;;;;2.85;2.40;;;;;;;;;;5030872;28;20675;-76
2022/05/18 04:38:29;;;;;;;2.38;2.15;;;;;;;;;;5031092;28;20285;-76
2022/05/18 04:40:57;;;;;;;2.40;2.30;;;;;;;;;;5030670;28;20208;-76
2022/05/18 04:43:24;;;;;;;2.65;2.30;;;;;;;;;;5030371;28;20209;-76
2022/05/18 04:45:52;;;;;;;2.60;2.38;;;;;;;;;;5029812;28;20209;-76
2022/05/18 04:48:20;;;;;;;2.47;2.28;;;;;;;;;;5030027;28;20245;-76
2022/05/18 04:50:49;;;;;;;2.60;2.40;;;;;;;;;;5029521;28;20218;-76
2022/05/18 04:53:16;;;;;;;2.45;2.25;;;;;;;;;;5030642;28;20301;-76
2022/05/18 04:55:44;;;;;;;2.60;2.35;;;;;;;;;;5030054;28;20201;-76
2022/05/18 04:58:11;;;;;;;2.53;2.33;;;;;;;;;;5030869;28;20222;-76
2022/05/18 05:00:39;;;;;;;3.40;2.58;;;;;;;;;;5030484;28;20259;-76
2022/05/18 05:03:06;;;;;;;2.75;2.30;;;;;;;;;;5029533;28;20208;-76
2022/05/18 05:05:34;;;;;;;2.40;2.20;;;;;;;;;;5030069;28;20765;-75
2022/05/18 05:08:02;;;;;;;2.50;2.30;;;;;;;;;;5030810;28;20741;-76
2022/05/18 05:10:29;;;;;;;2.67;2.30;;;;;;;;;;5030749;28;20221;-76
2022/05/18 05:12:57;;;;;;;2.67;2.40;;;;;;;;;;5030767;28;20264;-76
2022/05/18 05:15:24;;;;;;;2.65;2.45;;;;;;;;;;5029907;28;20198;-76
2022/05/18 05:17:51;;;;;;;2.65;2.45;;;;;;;;;;5026800;28;20214;-75
2022/05/18 05:20:19;;;;;;;2.47;2.28;;;;;;;;;;5027743;28;20267;-76
2022/05/18 05:22:46;;;;;;;2.75;2.20;;;;;;;;;;5024844;28;20299;-76
2022/05/18 05:25:15;;;;;;;2.80;2.53;;;;;;;;;;5019894;28;20570;-76
2022/05/18 05:27:42;;;;;;;4.13;2.30;;;;;;;;;;5033556;28;20218;-78
2022/05/18 05:30:11;;;;;;;2.78;2.50;;;;;;;;;;5032188;28;20221;-76
2022/05/18 05:32:38;;;;;;;2.47;2.28;;;;;;;;;;5034051;28;20970;-76
2022/05/18 05:35:06;;;;;;;3.30;2.47;;;;;;;;;;5032647;28;20201;-76
2022/05/18 05:37:33;;;;;;;2.78;2.50;;;;;;;;;;5034714;28;20213;-76
2022/05/18 05:40:00;;;;;;;2.47;2.28;;;;;;;;;;5032167;28;20271;-76
2022/05/18 05:42:29;;;;;;;3.53;2.50;;;;;;;;;;5028694;28;20229;-75
2022/05/18 05:44:56;;;;;;;2.70;2.50;;;;;;;;;;5032342;28;20301;-75
2022/05/18 05:47:23;;;;;;;3.45;2.72;;;;;;;;;;5034183;28;20269;-75
2022/05/18 05:49:50;;;;;;;3.75;2.50;;;;;;;;;;5034509;28;20319;-75
2022/05/18 05:52:18;;;;;;;4.38;2.78;;;;;;;;;;5034520;28;20255;-76
2022/05/18 05:54:45;;;;;;;4.53;2.90;;;;;;;;;;5033778;28;20217;-76
2022/05/18 05:57:12;;;;;;;5.07;2.75;;;;;;;;;;5035503;28;20369;-78
2022/05/18 05:59:41;;;;;;;4.88;2.53;;;;;;;;;;5030266;28;20202;-78
2022/05/18 06:02:11;;;;;;;4.65;2.83;;;;;;;;;;5033402;28;20648;-78
2022/05/18 06:04:40;;;;;;;5.85;2.53;;;;;;;;;;5035187;28;20202;-79
2022/05/18 06:07:07;;;;;;;3.45;2.60;;;;;;;;;;5034186;28;20245;-79
2022/05/18 06:09:34;;;;;;;3.97;2.42;;;;;;;;;;5036428;28;20222;-79
2022/05/18 06:12:02;;;;;;;4.72;2.72;;;;;;;;;;5037408;28;20638;-79
2022/05/18 06:14:29;;;;;;;3.55;2.47;;;;;;;;;;5037802;28;20230;-79
2022/05/18 06:16:58;;;;;;;3.50;2.70;;;;;;;;;;5037973;28;20218;-79
2022/05/18 06:19:25;;;;;;;3.10;2.80;;;;;;;;;;5037629;28;20202;-79
2022/05/18 06:21:52;;;;;;;4.30;3.13;;;;;;;;;;5038348;28;20210;-80
2022/05/18 06:24:21;;;;;;;6.28;3.63;;;;;;;;;;5036226;28;20252;-80
2022/05/18 06:26:48;;;;;;;4.50;3.83;;;;;;;;;;5038542;28;20218;-81
2022/05/18 06:29:15;;;;;;;7.45;4.00;;;;;;;;;;5040174;28;20210;-81
2022/05/18 06:31:43;;;;;;;4.32;3.70;;;;;;;;;;5037962;28;20236;-80
2022/05/18 06:34:11;;;;;;;5.60;3.85;;;;;;;;;;5036434;28;20225;-78
2022/05/18 06:36:39;;;;;;;4.30;3.60;;;;;;;;;;5034578;28;20202;-78
2022/05/18 06:39:06;;;;;;;4.90;3.55;;;;;;;;;;5034058;28;20706;-78
2022/05/18 06:41:34;;;;;;;5.78;3.90;;;;;;;;;;5037510;28;20209;-80
2022/05/18 06:44:02;;;;;;;5.57;3.75;;;;;;;;;;5039824;28;20217;-80
2022/05/18 06:46:31;;;;;;;4.40;3.60;;;;;;;;;;5038577;28;20698;-78
2022/05/18 06:48:58;;;;;;;4.53;3.72;;;;;;;;;;5035357;28;20201;-77
2022/05/18 06:51:29;;;;;;;5.47;3.70;;;;;;;;;;5034064;28;20292;-78
2022/05/18 06:53:57;;;;;;;4.13;3.70;;;;;;;;;;5033670;28;20221;-79
2022/05/18 06:56:26;;;;;;;6.50;3.50;;;;;;;;;;5033975;28;20202;-78
2022/05/18 06:58:54;;;;;;;5.75;3.38;;;;;;;;;;5033363;28;20237;-78
2022/05/18 07:01:21;;;;;;;6.75;3.60;;;;;;;;;;5033605;28;20263;-78
2022/05/18 07:03:49;;;;;;;4.22;3.40;;;;;;;;;;5032715;28;20210;-77
2022/05/18 07:06:17;;;;;;;3.85;3.55;;;;;;;;;;5033396;28;20249;-77
2022/05/18 07:08:46;;;;;;;5.10;3.53;;;;;;;;;;5025926;28;20275;-76
2022/05/18 07:11:13;;;;;;;7.68;3.70;;;;;;;;;;5032945;28;20288;-76
2022/05/18 07:13:40;;;;;;;4.40;3.30;;;;;;;;;;5032233;28;20201;-76
2022/05/18 07:16:08;;;;;;;5.20;3.45;;;;;;;;;;5032983;28;20534;-76
2022/05/18 07:18:36;;;;;;;4.03;3.38;;;;;;;;;;5032778;28;20230;-76
2022/05/18 07:21:05;;;;;;;5.88;3.20;;;;;;;;;;5033559;28;20303;-76
2022/05/18 07:23:32;;;;;;;4.57;3.10;;;;;;;;;;5035115;28;20202;-76
2022/05/18 07:26:01;;;;;;;4.15;3.40;;;;;;;;;;5037192;28;20280;-80
2022/05/18 07:28:28;;;;;;;4.70;3.47;;;;;;;;;;5033593;28;20313;-76
2022/05/18 07:30:56;;;;;;;6.35;4.03;;;;;;;;;;5033485;28;20210;-77
2022/05/18 07:33:24;;;;;;;8.30;4.13;;;;;;;;;;5038465;28;20202;-80
2022/05/18 07:35:52;;;;;;;7.72;4.03;;;;;;;;;;5040000;28;20198;-81
2022/05/18 07:38:20;;;;;;;6.07;3.88;;;;;;;;;;5035427;28;20226;-80
2022/05/18 07:40:48;;;;;;;6.95;4.10;;;;;;;;;;5038804;28;20206;-81
2022/05/18 07:43:18;;;;;;;13.68;4.72;;;;;;;;;;5041832;28;20207;-81
2022/05/18 07:45:48;;;;;;;15.25;5.50;;;;;;;;;;5039448;28;20205;-82
2022/05/18 07:48:15;;;;;;;14.32;4.60;;;;;;;;;;5036247;28;20226;-82
2022/05/18 07:50:43;;;;;;;10.75;4.53;;;;;;;;;;5038730;28;20210;-83
2022/05/18 07:53:10;;;;;;;10.27;4.60;;;;;;;;;;5039133;28;20205;-83
2022/05/18 07:55:38;;;;;;;6.75;4.05;;;;;;;;;;5034815;28;20209;-79
2022/05/18 07:58:06;;;;;;;7.32;4.32;;;;;;;;;;5035081;28;20232;-81
2022/05/18 08:00:35;;;;;;;7.68;4.40;;;;;;;;;;5033088;28;20206;-82
2022/05/18 08:03:02;;;;;;;5.32;3.88;;;;;;;;;;5033410;28;20301;-83
2022/05/18 08:05:30;;;;;;;4.38;3.50;;;;;;;;;;5032088;28;20205;-81
2022/05/18 08:07:57;;;;;;;7.93;4.05;;;;;;;;;;5033507;28;20226;-82
2022/05/18 08:15:56;;;;;;;6.25;3.70;;;;;;;;;;5031865;28;20204;-82
2022/05/18 08:18:23;;;;;;;4.95;3.65;;;;;;;;;;5032805;28;20264;-84
2022/05/18 08:20:50;;;;;;;4.32;3.58;;;;;;;;;;5033476;28;20202;-81
2022/05/18 08:23:18;;;;;;;4.68;3.75;;;;;;;;;;5033089;28;20201;-81
2022/05/18 08:25:46;;;;;;;5.95;3.80;;;;;;;;;;5032391;28;20241;-82
2022/05/18 08:28:13;;;;;;;3.67;3.30;;;;;;;;;;5033102;28;20230;-81
2022/05/18 08:30:42;;;;;;;5.72;3.70;;;;;;;;;;5034010;28;20197;-82
2022/05/18 08:33:11;;;;;;;4.60;3.30;;;;;;;;;;5033319;28;20202;-80
2022/05/18 08:35:43;;;;;;;4.85;4.10;;;;;;;;;;5033040;28;20682;-80
2022/05/18 08:38:11;;;;;;;5.07;3.58;;;;;;;;;;5033179;28;20214;-81
2022/05/18 08:40:40;;;;;;;6.30;3.88;;;;;;;;;;5033203;28;20285;-79
2022/05/18 08:43:08;;;;;;;4.70;3.33;;;;;;;;;;5034227;28;20205;-79
2022/05/18 08:45:38;;;;;;;5.00;3.55;;;;;;;;;;5032839;28;20206;-80
2022/05/18 08:48:07;;;;;;;6.65;3.80;;;;;;;;;;5032491;28;20232;-80
2022/05/18 08:50:36;;;;;;;5.53;5.00;;;;;;;;;;5030877;28;20664;-80
2022/05/18 08:53:13;;;;;;;5.30;4.80;;;;;;;;;;5021303;28;20202;-79
2022/05/18 08:55:46;;;;;;;5.25;4.05;;;;;;;;;;5024864;28;20267;-79
2022/05/18 08:58:17;;;;;;;5.45;4.00;;;;;;;;;;5029162;28;20233;-81
2022/05/18 09:00:45;;;;;;;5.57;4.32;;;;;;;;;;5033015;28;20202;-83
2022/05/18 09:03:19;;;;;;;5.07;3.70;;;;;;;;;;5035216;28;20193;-85
2022/05/18 09:05:52;;;;;;;4.18;3.80;;;;;;;;;;5040828;28;20196;-85
2022/05/18 09:08:22;;;;;;;5.03;3.85;;;;;;;;;;5039184;28;20300;-84
2022/05/18 09:10:50;;;;;;;3.95;3.30;;;;;;;;;;5039113;28;20262;-83
2022/05/18 09:13:18;;;;;;;3.80;3.42;;;;;;;;;;5040088;28;20232;-83
2022/05/18 09:15:53;;;;;;;5.63;3.25;;;;;;;;;;5039522;28;20209;-84
2022/05/18 09:18:25;;;;;;;4.60;3.22;;;;;;;;;;5040048;28;20231;-82
2022/05/18 09:20:56;;;;;;;3.65;3.20;;;;;;;;;;5039654;28;20213;-81
2022/05/18 09:23:29;;;;;;;4.65;3.08;;;;;;;;;;5039723;28;20267;-83
2022/05/18 09:26:04;;;;;;;5.47;3.67;;;;;;;;;;5039272;28;20208;-83
2022/05/18 09:28:39;;;;;;;3.88;3.30;;;;;;;;;;5039179;28;20249;-83
2022/05/18 09:31:15;;;;;;;4.45;3.50;;;;;;;;;;5040263;28;20207;-84
2022/05/18 09:33:53;;;;;;;4.75;3.17;;;;;;;;;;5039997;28;20228;-83
2022/05/18 09:36:37;;;;;;;3.42;3.03;;;;;;;;;;5040622;28;20205;-83
2022/05/18 09:39:08;;;;;;;3.15;2.80;;;;;;;;;;5020176;28;20198;-83
2022/05/18 09:41:38;;;;;;;3.42;2.92;;;;;;;;;;5034422;28;20206;-88
2022/05/18 09:44:11;;;;;;;3.50;3.15;;;;;;;;;;5038536;28;20209;-81
2022/05/18 09:46:42;;;;;;;3.03;2.72;;;;;;;;;;5039791;28;20236;-83
2022/05/18 09:49:11;;;;;;;3.38;3.08;;;;;;;;;;5039927;28;20206;-82
2022/05/18 09:51:41;;;;;;;5.50;2.58;;;;;;;;;;5039318;28;20206;-84
2022/05/18 09:54:09;;;;;;;4.18;2.72;;;;;;;;;;5037842;28;20206;-82
2022/05/18 09:56:39;;;;;;;2.72;2.42;;;;;;;;;;5031600;28;20260;-83
2022/05/18 09:59:14;;;;;;;3.05;2.78;;;;;;;;;;5039060;28;20217;-82
2022/05/18 10:28:20;;;;;;;23.55;14.27;;;;;;;;;;5033167;28;20706;-86
2022/05/18 10:30:55;;;;;;;17.30;11.30;;;;;;;;;;5016421;28;20230;-86
2022/05/18 10:36:15;;;;;;;17.25;10.40;;;;;;;;;;5177636;23;20218;-86
2022/05/18 10:38:53;;;;;;;14.73;9.70;;;;;;;;;;5033723;28;20212;-86
2022/05/18 10:41:26;;;;;;;12.65;8.43;;;;;;;;;;5033253;28;20217;-85
2022/05/18 10:44:02;;;;;;;13.13;7.38;;;;;;;;;;5034055;28;20562;-87
2022/05/18 10:46:36;;;;;;;12.13;6.97;;;;;;;;;;5034607;28;20233;-86
2022/05/18 10:49:42;;;;;;;8.52;5.30;;;;;;;;;;5034904;28;20208;-85
2022/05/18 10:58:26;;;;;;;5.18;3.78;;;;;;;;;;5031650;28;20207;-85
2022/05/18 11:01:23;;;;;;;;;;;;;;;;;;;;;
2022/05/18 11:10:12;;;;;;;3.03;2.33;;;;;;;;;;5026203;28;20205;-86
2022/05/18 11:13:00;;;;;;;3.60;3.10;;;;;;;;;;5032771;28;20260;-85
2022/05/18 11:15:34;;;;;;;4.60;2.90;;;;;;;;;;5033176;28;20205;-85
2022/05/18 11:18:04;;;;;;;3.95;2.85;;;;;;;;;;5034840;28;20261;-85
2022/05/18 11:20:46;;;;;;;3.15;2.35;;;;;;;;;;5034860;28;20215;-87
2022/05/18 11:35:51;;;;;;;2.88;2.47;;;;;;;;;;4907739;29;20209;-87
2022/05/18 11:38:29;;;;;;;2.85;2.42;;;;;;;;;;4911292;29;20346;-85
2022/05/18 11:41:00;;;;;;;3.35;2.67;;;;;;;;;;4940059;28;20212;-86
2022/05/18 11:43:38;;;;;;;3.13;2.80;;;;;;;;;;4963480;28;20703;-85
2022/05/18 11:46:12;;;;;;;3.25;2.60;;;;;;;;;;4961782;28;20234;-85
2022/05/18 11:48:54;;;;;;;3.22;2.15;;;;;;;;;;4970432;28;20228;-85
2022/05/18 11:51:35;;;;;;;3.33;2.55;;;;;;;;;;4977034;28;20246;-88
2022/05/18 11:54:11;;;;;;;2.33;2.20;;;;;;;;;;4988554;28;20231;-88
2022/05/18 11:59:44;;;;;;;5.88;2.33;;;;;;;;;;4972621;28;20244;-86
2022/05/18 12:02:21;;;;;;;3.20;2.20;;;;;;;;;;4977054;28;20218;-87
2022/05/18 12:05:07;;;;;;;3.10;2.33;;;;;;;;;;5033421;28;20206;-87
2022/05/18 12:08:24;;;;;;;2.72;2.30;;;;;;;;;;5033903;28;20230;-87
2022/05/18 12:38:54;;;;;;;2.83;2.53;;;;;;;;;;5031271;28;20682;-90
2022/05/18 12:41:54;;;;;;;2.45;2.25;;;;;;;;;;5023237;28;20218;-89
2022/05/18 12:47:31;;;;;;;2.28;2.08;;;;;;;;;;5031167;28;20293;-89
2022/05/18 12:50:02;;;;;;;2.38;2.13;;;;;;;;;;5026586;28;20198;-89
2022/05/18 12:55:59;;;;;;;2.72;2.40;;;;;;;;;;5027257;28;20206;-91
2022/05/18 12:58:34;;;;;;;2.95;2.15;;;;;;;;;;5024017;28;20209;-87
2022/05/18 13:01:12;;;;;;;3.08;2.78;;;;;;;;;;5021871;28;20194;-88
2022/05/18 13:07:19;;;;;;;4.47;2.50;;;;;;;;;;5029128;28;20230;-89
2022/05/18 13:09:49;;;;;;;3.80;2.65;;;;;;;;;;5033509;28;20209;-89
2022/05/18 13:12:41;;;;;;;2.42;2.17;;;;;;;;;;5031445;28;20256;-89
2022/05/18 14:13:45;;;;;;;3.38;2.40;;;;;;;;;;4971669;28;20190;-87
2022/05/18 14:16:35;;;;;;;3.10;2.80;;;;;;;;;;4914333;29;20253;-90
2022/05/18 14:25:54;;;;;;;;;;;;;;;;;;;;;
2022/05/18 16:26:58;;;;;;;2.60;2.40;;;;;;;;;;5872124;23;20236;-76
2022/05/18 16:29:27;;;;;;;3.03;2.70;;;;;;;;;;5031109;28;20225;-77
2022/05/18 16:31:54;;;;;;;4.00;2.80;;;;;;;;;;5031120;28;20234;-77
2022/05/18 16:34:24;;;;;;;2.63;2.40;;;;;;;;;;5029728;28;20229;-77
2022/05/18 16:36:59;;;;;;;2.63;2.42;;;;;;;;;;5030787;28;20723;-77
2022/05/18 16:39:27;;;;;;;2.78;2.40;;;;;;;;;;5030060;28;20212;-77
2022/05/18 16:41:54;;;;;;;2.65;2.45;;;;;;;;;;5031285;28;20225;-77
2022/05/18 16:44:24;;;;;;;2.83;2.63;;;;;;;;;;5028211;28;20206;-76
2022/05/18 16:46:56;;;;;;;3.28;2.67;;;;;;;;;;5024579;28;20299;-76
2022/05/18 16:49:32;;;;;;;3.13;2.83;;;;;;;;;;5031705;28;20695;-77
2022/05/18 16:52:01;;;;;;;2.83;2.63;;;;;;;;;;5030903;28;20211;-77
2022/05/18 16:54:31;;;;;;;3.20;2.65;;;;;;;;;;5030366;28;20237;-76
2022/05/18 16:57:05;;;;;;;3.50;3.20;;;;;;;;;;5031331;28;20233;-83
2022/05/18 16:59:40;;;;;;;3.53;3.17;;;;;;;;;;5031097;28;20228;-79
2022/05/18 17:02:08;;;;;;;3.35;2.80;;;;;;;;;;5034221;28;20212;-78
2022/05/18 17:08:43;;;;;;;2.70;2.50;;;;;;;;;;5027185;28;20224;-79
2022/05/18 17:10:40;;;;;;;3.08;2.88;;;;;;;;;;5023962;28;20233;-78
2022/05/18 17:13:15;;;;;;;3.83;3.10;;;;;;;;;;5031210;28;20235;-78
2022/05/18 17:15:46;;;;;;;3.20;2.90;;;;;;;;;;5033153;28;20209;-79
2022/05/18 17:21:07;;;;;;;2.85;2.65;;;;;;;;;;5039279;28;20214;-85
2022/05/18 17:23:45;;;;;;;3.00;2.70;;;;;;;;;;5044286;28;20206;-79
2022/05/18 17:26:19;;;;;;;3.05;2.75;;;;;;;;;;5043446;28;20288;-83
2022/05/18 17:28:50;;;;;;;3.47;3.00;;;;;;;;;;5035559;28;20217;-80
2022/05/18 17:31:25;;;;;;;4.43;3.20;;;;;;;;;;5029045;28;20233;-77
2022/05/18 17:33:55;;;;;;;3.00;2.80;;;;;;;;;;5032763;28;20233;-80
2022/05/18 17:36:24;;;;;;;16.27;3.50;;;;;;;;;;5028350;28;20202;-77
2022/05/18 17:38:55;;;;;;;36.10;9.73;;;;;;;;;;5035740;28;20205;-81
2022/05/18 17:41:22;;;;;;;45.83;11.70;;;;;;;;;;5036943;28;20214;-77
2022/05/18 17:43:49;;;;;;;68.30;15.98;;;;;;;;;;5034462;28;20237;-78
2022/05/18 17:46:16;;;;;;;44.97;11.48;;;;;;;;;;5038390;28;20201;-80
2022/05/18 17:48:46;;;;;;;6.38;3.40;;;;;;;;;;5040351;28;20279;-77
2022/05/18 17:51:15;;;;;;;9.20;3.72;;;;;;;;;;5034441;28;20225;-75
2022/05/18 17:53:44;;;;;;;14.02;4.60;;;;;;;;;;5033280;28;20264;-76
2022/05/18 17:56:12;;;;;;;8.05;3.95;;;;;;;;;;5033972;28;20209;-77
2022/05/18 17:58:42;;;;;;;9.75;4.30;;;;;;;;;;5033505;28;20233;-78
2022/05/18 18:01:10;;;;;;;8.50;3.88;;;;;;;;;;5034522;28;20233;-77
2022/05/18 18:03:38;;;;;;;8.48;3.90;;;;;;;;;;5030487;28;20208;-77
2022/05/18 18:06:06;;;;;;;6.45;3.63;;;;;;;;;;5031282;28;20260;-78
2022/05/18 18:08:34;;;;;;;7.75;4.43;;;;;;;;;;5033492;28;20280;-76
2022/05/18 18:11:02;;;;;;;7.70;3.95;;;;;;;;;;5033888;28;20210;-77
2022/05/18 18:13:31;;;;;;;6.90;4.05;;;;;;;;;;5031635;28;20210;-77
2022/05/18 18:15:59;;;;;;;7.18;3.90;;;;;;;;;;5028031;28;20233;-77
2022/05/18 18:18:27;;;;;;;7.22;4.05;;;;;;;;;;5033766;28;20226;-77
2022/05/18 18:20:54;;;;;;;5.43;3.63;;;;;;;;;;5033472;28;20205;-78
2022/05/18 18:23:26;;;;;;;9.98;3.90;;;;;;;;;;5033597;28;20206;-76
2022/05/18 18:26:26;;;;;;;6.47;4.00;;;;;;;;;;5033158;28;20213;-77
2022/05/18 18:28:54;;;;;;;4.07;3.58;;;;;;;;;;5021853;28;20229;-77
2022/05/18 18:31:21;;;;;;;5.55;3.40;;;;;;;;;;5027520;28;20213;-77
2022/05/18 18:33:49;;;;;;;5.43;3.58;;;;;;;;;;5031103;28;20252;-77
2022/05/18 18:36:19;;;;;;;6.80;3.60;;;;;;;;;;5032904;28;20260;-77
2022/05/18 18:38:49;;;;;;;4.68;3.35;;;;;;;;;;5026479;28;20267;-77
2022/05/18 18:41:17;;;;;;;3.53;3.13;;;;;;;;;;5033323;28;20253;-78
2022/05/18 18:43:44;;;;;;;5.18;3.50;;;;;;;;;;5032899;28;20260;-77
2022/05/18 18:49:04;;;;;;;4.60;3.08;;;;;;;;;;5031553;28;20225;-77
2022/05/18 18:57:06;;;;;;;3.70;3.22;;;;;;;;;;5033377;28;20299;-77
2022/05/18 18:59:34;;;;;;;4.18;3.17;;;;;;;;;;5033037;28;20210;-77
2022/05/18 19:02:01;;;;;;;4.63;3.35;;;;;;;;;;5032515;28;20260;-77
2022/05/18 19:04:28;;;;;;;3.78;3.42;;;;;;;;;;5032379;28;20229;-77
2022/05/18 19:06:58;;;;;;;3.33;2.97;;;;;;;;;;5032423;28;20222;-78
2022/05/18 19:09:28;;;;;;;5.57;3.25;;;;;;;;;;5032743;28;20236;-77
2022/05/18 19:11:55;;;;;;;3.17;2.88;;;;;;;;;;5032658;28;20664;-77
2022/05/18 19:14:23;;;;;;;6.00;3.17;;;;;;;;;;5032349;28;20305;-77
2022/05/18 19:16:50;;;;;;;3.88;3.10;;;;;;;;;;5032033;28;20260;-77
2022/05/18 19:19:18;;;;;;;4.60;3.03;;;;;;;;;;5032620;28;20230;-77
2022/05/18 19:21:46;;;;;;;4.43;2.97;;;;;;;;;;5032861;28;20233;-77
2022/05/18 19:24:19;;;;;;;4.22;3.50;;;;;;;;;;5029467;28;20202;-77
2022/05/18 19:26:48;;;;;;;3.25;3.03;;;;;;;;;;5031423;28;20225;-77
2022/05/18 19:29:18;;;;;;;3.95;2.70;;;;;;;;;;5031695;28;20285;-78
2022/05/18 19:31:48;;;;;;;4.38;3.63;;;;;;;;;;5032150;28;20210;-77
2022/05/18 19:34:17;;;;;;;3.47;3.17;;;;;;;;;;5031291;28;20292;-77
2022/05/18 19:36:44;;;;;;;5.13;3.10;;;;;;;;;;5030933;28;20218;-77
2022/05/18 19:39:12;;;;;;;4.75;3.05;;;;;;;;;;5035632;28;20707;-78
2022/05/18 19:41:39;;;;;;;6.55;3.70;;;;;;;;;;5031974;28;21001;-77
2022/05/18 19:44:12;;;;;;;5.95;3.40;;;;;;;;;;5034633;28;20194;-78
2022/05/18 19:46:39;;;;;;;7.35;3.40;;;;;;;;;;5026430;28;20203;-78
2022/05/18 19:49:07;;;;;;;5.35;2.95;;;;;;;;;;5030743;28;20286;-76
2022/05/18 19:51:34;;;;;;;2.80;2.60;;;;;;;;;;5030680;28;20202;-76
2022/05/18 19:54:01;;;;;;;5.93;3.17;;;;;;;;;;5030886;28;20206;-76
2022/05/18 19:56:29;;;;;;;3.28;2.90;;;;;;;;;;5030430;28;20288;-76
2022/05/18 19:58:57;;;;;;;3.53;3.03;;;;;;;;;;5031314;28;20197;-76
2022/05/18 20:01:26;;;;;;;3.28;2.97;;;;;;;;;;5030339;28;20204;-73
2022/05/18 20:03:53;;;;;;;3.75;3.13;;;;;;;;;;5023795;28;20244;-73